LZKZ/KSC METAR and TAF weather

Enter ICAO airport designator
Station Type Date Time Source
LZKZ METAR 2022/01/29 10:30 UTC NOAA

LZKZ 291030Z 22004KT 160V280 CAVOK 02/M06 Q1024 NOSIG


Station Type Date Time Source
LZKZ Decoded METAR 2022/01/29 10:30 UTC NOAA

Kosice, Barca, Slovakia (LZKZ) 48-39-47N 021-14-28E
Jan 29, 2022 - 05:30 AM EST / 2022.01.29 1030 UTC
Wind: from the SW (220 degrees) at 5 MPH (4 KT) (direction variable):0
Visibility: greater than 7 mile(s):0
Temperature: 35 F (2 C)
Windchill: 30 F (-1 C):1
Dew Point: 21 F (-6 C)
Relative Humidity: 55%
Pressure (altimeter): 30.24 in. Hg (1024 hPa)
ob: LZKZ 291030Z 22004KT 160V280 CAVOK 02/M06 Q1024 NOSIG
cycle: 10

Station Type Date Time Source
LZKZ TAF 2022/01/29 06:48 UTC NOAA

TAF LZKZ 290500Z 2906/3006 35007KT 9999 FEW040
BECMG 2908/2910 23010KT
TEMPO 2914/3000 23015G30KT
BECMG 2915/2917 SCT016 OVC030
TEMPO 2916/2923 1200 SN BKN008 OVC020
TEMPO 3002/3006 2000 RASN BKN012 OVC020

Example: see airport list